Bancroft, Idaho
Current Conditions -  °F | °C
As of 4:53 AM on Thursday 18 Dec 2014 (Local Time) from KPIH Reporting Station
Haze Haze  
Wind Chill: 19°   Ceiling: Unl
Heat Index: 19°   Visibility: 4mi
Dew Point: 18°   Wind: 0mph
Humidity: 96%   Direction: NA
Pressure: 30.09"   Gusts: NA
Location:  42.72°N, 111.89°W
Report Text: KPIH 181153Z AUTO 00000KT 4SM BR CLR M07/M08 A3009 RMK AO2 SLP222 I1000 I6000 T10721078 11028 21078 53012
Loading
Personal Weather Stations






























Interactive Weather Map New forecast layout! Learn more

10-Day Weather Forecast

Advertisements
Track Severe Weather on mobile